sensor_id;sensor_type;location;lat;lon;timestamp;pressure;altitude;pressure_sealevel;temperature;humidity
6435;BME280;3250;42.694;23.278;2022-07-29T00:02:08;95028.94;;;21.69;77.06
6435;BME280;3250;42.694;23.278;2022-07-29T00:04:36;95033.19;;;21.75;76.74
6435;BME280;3250;42.694;23.278;2022-07-29T00:07:03;95037.16;;;21.82;76.72
6435;BME280;3250;42.694;23.278;2022-07-29T00:09:29;95039.34;;;21.75;77.22
6435;BME280;3250;42.694;23.278;2022-07-29T00:11:56;95037.13;;;21.33;78.72
6435;BME280;3250;42.694;23.278;2022-07-29T00:14:23;95023.22;;;21.21;79.66
6435;BME280;3250;42.694;23.278;2022-07-29T00:16:49;95030.41;;;21.36;79.15
6435;BME280;3250;42.694;23.278;2022-07-29T00:19:14;94995.63;;;21.21;78.71
6435;BME280;3250;42.694;23.278;2022-07-29T00:21:39;95030.09;;;21.53;78.00
6435;BME280;3250;42.694;23.278;2022-07-29T00:24:05;95024.16;;;21.56;77.74
6435;BME280;3250;42.694;23.278;2022-07-29T00:26:30;95027.97;;;21.44;78.43
6435;BME280;3250;42.694;23.278;2022-07-29T00:29:02;95029.00;;;21.49;78.62
6435;BME280;3250;42.694;23.278;2022-07-29T00:31:28;95035.44;;;21.53;78.98
6435;BME280;3250;42.694;23.278;2022-07-29T00:33:53;95000.66;;;21.37;79.17
6435;BME280;3250;42.694;23.278;2022-07-29T00:36:19;95027.63;;;21.61;78.88
6435;BME280;3250;42.694;23.278;2022-07-29T00:38:47;95031.06;;;21.67;78.41
6435;BME280;3250;42.694;23.278;2022-07-29T00:41:12;95025.78;;;21.52;78.03
6435;BME280;3250;42.694;23.278;2022-07-29T00:43:38;95039.69;;;21.59;78.26
6435;BME280;3250;42.694;23.278;2022-07-29T00:46:03;95042.09;;;21.60;78.30
6435;BME280;3250;42.694;23.278;2022-07-29T00:48:29;95015.63;;;21.49;78.17
6435;BME280;3250;42.694;23.278;2022-07-29T00:50:56;95042.34;;;21.64;77.95
6435;BME280;3250;42.694;23.278;2022-07-29T00:53:23;95040.22;;;21.61;77.94
6435;BME280;3250;42.694;23.278;2022-07-29T00:55:48;95048.25;;;21.61;77.76
6435;BME280;3250;42.694;23.278;2022-07-29T00:58:14;95042.09;;;21.60;78.08
6435;BME280;3250;42.694;23.278;2022-07-29T01:00:39;95031.16;;;21.52;77.96
6435;BME280;3250;42.694;23.278;2022-07-29T01:03:08;95040.25;;;21.45;78.48
6435;BME280;3250;42.694;23.278;2022-07-29T01:05:34;95033.09;;;21.36;78.85
6435;BME280;3250;42.694;23.278;2022-07-29T01:08:00;95021.84;;;21.34;78.77
6435;BME280;3250;42.694;23.278;2022-07-29T01:10:27;94977.19;;;21.04;78.68
6435;BME280;3250;42.694;23.278;2022-07-29T01:12:54;95015.69;;;21.28;79.01
6435;BME280;3250;42.694;23.278;2022-07-29T01:15:20;95022.38;;;21.31;78.23
6435;BME280;3250;42.694;23.278;2022-07-29T01:17:54;95004.22;;;21.07;78.63
6435;BME280;3250;42.694;23.278;2022-07-29T01:29:35;94999.69;;;21.08;79.58
6435;BME280;3250;42.694;23.278;2022-07-29T01:32:24;94999.41;;;21.04;79.84
6435;BME280;3250;42.694;23.278;2022-07-29T01:35:08;95003.47;;;20.92;80.10
6435;BME280;3250;42.694;23.278;2022-07-29T01:37:55;95002.44;;;20.52;81.72
6435;BME280;3250;42.694;23.278;2022-07-29T01:40:27;95001.66;;;20.42;82.76
6435;BME280;3250;42.694;23.278;2022-07-29T01:42:58;95004.59;;;20.50;82.44
6435;BME280;3250;42.694;23.278;2022-07-29T01:45:37;94998.44;;;20.50;81.81
6435;BME280;3250;42.694;23.278;2022-07-29T01:50:42;94999.78;;;20.52;82.23
6435;BME280;3250;42.694;23.278;2022-07-29T01:53:12;94966.38;;;20.40;81.72
6435;BME280;3250;42.694;23.278;2022-07-29T01:55:42;94984.53;;;20.53;81.30
6435;BME280;3250;42.694;23.278;2022-07-29T01:58:10;95001.91;;;20.65;81.31
6435;BME280;3250;42.694;23.278;2022-07-29T02:00:38;94987.47;;;20.61;81.42
6435;BME280;3250;42.694;23.278;2022-07-29T02:03:08;95005.66;;;20.69;81.74
6435;BME280;3250;42.694;23.278;2022-07-29T02:05:36;94998.69;;;20.74;81.44
6435;BME280;3250;42.694;23.278;2022-07-29T02:08:04;94989.03;;;20.78;81.00
6435;BME280;3250;42.694;23.278;2022-07-29T02:10:32;94990.91;;;20.77;81.39
6435;BME280;3250;42.694;23.278;2022-07-29T02:12:59;94988.25;;;20.72;81.25
6435;BME280;3250;42.694;23.278;2022-07-29T02:15:27;94968.47;;;20.53;81.63
6435;BME280;3250;42.694;23.278;2022-07-29T02:17:58;94979.19;;;20.63;82.05
6435;BME280;3250;42.694;23.278;2022-07-29T02:20:25;94980.22;;;20.67;81.69
6435;BME280;3250;42.694;23.278;2022-07-29T02:22:53;94978.34;;;20.67;81.64
6435;BME280;3250;42.694;23.278;2022-07-29T02:25:21;94978.63;;;20.71;81.46
6435;BME280;3250;42.694;23.278;2022-07-29T02:27:48;94967.66;;;20.67;81.42
6435;BME280;3250;42.694;23.278;2022-07-29T02:30:16;94981.28;;;20.81;81.54
6435;BME280;3250;42.694;23.278;2022-07-29T02:32:43;94971.91;;;20.84;81.41
6435;BME280;3250;42.694;23.278;2022-07-29T02:35:12;94964.97;;;20.83;81.79
6435;BME280;3250;42.694;23.278;2022-07-29T02:37:39;94943.56;;;20.73;81.29
6435;BME280;3250;42.694;23.278;2022-07-29T02:40:09;94934.22;;;20.65;81.08
6435;BME280;3250;42.694;23.278;2022-07-29T02:42:37;94966.84;;;20.82;81.81
6435;BME280;3250;42.694;23.278;2022-07-29T02:45:05;94962.25;;;20.88;82.05
6435;BME280;3250;42.694;23.278;2022-07-29T02:47:46;94956.38;;;20.91;81.65
6435;BME280;3250;42.694;23.278;2022-07-29T02:50:17;94960.66;;;20.92;81.32
6435;BME280;3250;42.694;23.278;2022-07-29T02:52:53;94958.25;;;20.90;81.46
6435;BME280;3250;42.694;23.278;2022-07-29T02:55:26;94960.13;;;20.90;81.85
6435;BME280;3250;42.694;23.278;2022-07-29T03:00:27;94956.91;;;20.93;81.19
6435;BME280;3250;42.694;23.278;2022-07-29T03:02:56;94960.88;;;20.95;81.20
6435;BME280;3250;42.694;23.278;2022-07-29T03:05:22;94964.09;;;20.97;80.76
6435;BME280;3250;42.694;23.278;2022-07-29T03:07:52;94961.97;;;20.99;80.57
6435;BME280;3250;42.694;23.278;2022-07-29T03:10:20;94947.03;;;20.83;80.50
6435;BME280;3250;42.694;23.278;2022-07-29T03:12:47;94944.91;;;20.75;80.38
6435;BME280;3250;42.694;23.278;2022-07-29T03:15:12;94964.94;;;20.93;80.67
6435;BME280;3250;42.694;23.278;2022-07-29T03:17:39;94962.53;;;20.86;80.64
6435;BME280;3250;42.694;23.278;2022-07-29T03:20:07;94960.66;;;20.77;80.85
6435;BME280;3250;42.694;23.278;2022-07-29T03:22:32;94965.75;;;20.78;80.96
6435;BME280;3250;42.694;23.278;2022-07-29T03:25:07;94949.78;;;20.58;81.55
6435;BME280;3250;42.694;23.278;2022-07-29T03:27:34;94970.38;;;20.47;82.28
6435;BME280;3250;42.694;23.278;2022-07-29T03:29:59;94969.56;;;20.21;83.46
6435;BME280;3250;42.694;23.278;2022-07-29T03:32:24;94966.34;;;20.04;84.53
6435;BME280;3250;42.694;23.278;2022-07-29T03:34:50;94975.41;;;19.98;84.83
6435;BME280;3250;42.694;23.278;2022-07-29T03:37:15;94977.53;;;19.76;85.88
6435;BME280;3250;42.694;23.278;2022-07-29T03:39:41;94979.63;;;19.64;86.30
6435;BME280;3250;42.694;23.278;2022-07-29T03:42:10;94976.16;;;19.58;87.44
6435;BME280;3250;42.694;23.278;2022-07-29T03:44:39;94978.88;;;19.63;87.49
6435;BME280;3250;42.694;23.278;2022-07-29T03:47:06;94980.22;;;19.81;87.22
6435;BME280;3250;42.694;23.278;2022-07-29T03:49:32;94980.25;;;20.01;86.09
6435;BME280;3250;42.694;23.278;2022-07-29T03:52:00;94987.47;;;20.21;85.29
6435;BME280;3250;42.694;23.278;2022-07-29T03:54:26;94990.16;;;20.41;84.03
6435;BME280;3250;42.694;23.278;2022-07-29T03:56:52;94996.31;;;20.57;83.07
6435;BME280;3250;42.694;23.278;2022-07-29T03:59:19;94993.34;;;20.68;83.19
6435;BME280;3250;42.694;23.278;2022-07-29T04:01:47;95004.28;;;20.82;82.87
6435;BME280;3250;42.694;23.278;2022-07-29T04:04:12;94991.66;;;20.98;81.75
6435;BME280;3250;42.694;23.278;2022-07-29T04:06:42;94994.28;;;21.13;80.98
6435;BME280;3250;42.694;23.278;2022-07-29T04:09:08;94990.78;;;21.28;80.84
6435;BME280;3250;42.694;23.278;2022-07-29T04:11:34;94997.69;;;21.44;81.11
6435;BME280;3250;42.694;23.278;2022-07-29T04:14:00;94991.19;;;21.60;79.71
6435;BME280;3250;42.694;23.278;2022-07-29T04:16:26;94993.72;;;21.80;78.36
6435;BME280;3250;42.694;23.278;2022-07-29T04:18:51;94990.97;;;21.96;78.04
6435;BME280;3250;42.694;23.278;2022-07-29T04:21:16;94990.63;;;22.12;77.36
6435;BME280;3250;42.694;23.278;2022-07-29T04:23:42;94991.03;;;22.30;76.53
6435;BME280;3250;42.694;23.278;2022-07-29T04:26:10;94996.50;;;22.48;75.70
6435;BME280;3250;42.694;23.278;2022-07-29T04:28:36;94996.66;;;22.62;75.27
6435;BME280;3250;42.694;23.278;2022-07-29T04:31:01;94990.09;;;22.73;74.92
6435;BME280;3250;42.694;23.278;2022-07-29T04:33:27;94997.94;;;22.99;74.19
6435;BME280;3250;42.694;23.278;2022-07-29T04:35:52;95009.22;;;23.19;73.31
6435;BME280;3250;42.694;23.278;2022-07-29T04:38:18;95005.34;;;23.30;72.66
6435;BME280;3250;42.694;23.278;2022-07-29T04:40:43;95013.50;;;23.44;71.95
6435;BME280;3250;42.694;23.278;2022-07-29T04:43:08;95011.00;;;23.53;71.72
6435;BME280;3250;42.694;23.278;2022-07-29T04:45:34;95010.56;;;23.69;70.50
6435;BME280;3250;42.694;23.278;2022-07-29T04:48:00;95030.41;;;23.92;69.81
6435;BME280;3250;42.694;23.278;2022-07-29T04:50:25;95026.84;;;24.16;69.36
6435;BME280;3250;42.694;23.278;2022-07-29T04:52:50;95027.44;;;24.31;68.58
6435;BME280;3250;42.694;23.278;2022-07-29T04:55:16;95035.50;;;24.50;67.41
6435;BME280;3250;42.694;23.278;2022-07-29T04:57:41;95035.59;;;24.77;66.85
6435;BME280;3250;42.694;23.278;2022-07-29T05:00:07;95032.97;;;25.18;65.55
6435;BME280;3250;42.694;23.278;2022-07-29T05:02:33;95031.91;;;25.47;64.48
6435;BME280;3250;42.694;23.278;2022-07-29T05:04:58;95027.13;;;25.58;64.04
6435;BME280;3250;42.694;23.278;2022-07-29T05:07:24;95040.38;;;25.54;64.25
6435;BME280;3250;42.694;23.278;2022-07-29T05:09:49;95028.84;;;25.67;64.01
6435;BME280;3250;42.694;23.278;2022-07-29T05:12:15;95032.47;;;25.99;62.30
6435;BME280;3250;42.694;23.278;2022-07-29T05:14:40;95041.41;;;26.21;61.69
6435;BME280;3250;42.694;23.278;2022-07-29T05:17:05;95034.31;;;26.25;61.65
6435;BME280;3250;42.694;23.278;2022-07-29T05:19:31;95038.94;;;25.75;61.72
6435;BME280;3250;42.694;23.278;2022-07-29T05:21:56;95041.69;;;25.43;63.31
6435;BME280;3250;42.694;23.278;2022-07-29T05:24:22;95028.31;;;25.24;63.95
6435;BME280;3250;42.694;23.278;2022-07-29T05:26:48;95035.19;;;25.44;64.89
6435;BME280;3250;42.694;23.278;2022-07-29T05:29:13;95031.31;;;25.50;64.25
6435;BME280;3250;42.694;23.278;2022-07-29T05:31:38;95031.91;;;25.47;63.46
6435;BME280;3250;42.694;23.278;2022-07-29T05:34:04;95024.41;;;25.44;64.12
6435;BME280;3250;42.694;23.278;2022-07-29T05:36:29;95034.00;;;25.23;64.38
6435;BME280;3250;42.694;23.278;2022-07-29T05:38:55;95033.09;;;25.13;65.11
6435;BME280;3250;42.694;23.278;2022-07-29T05:41:20;95038.78;;;25.26;65.08
6435;BME280;3250;42.694;23.278;2022-07-29T05:43:46;95032.94;;;24.91;66.06
6435;BME280;3250;42.694;23.278;2022-07-29T05:46:11;95037.19;;;25.11;65.87
6435;BME280;3250;42.694;23.278;2022-07-29T05:48:39;95037.41;;;25.55;65.94
6435;BME280;3250;42.694;23.278;2022-07-29T05:51:04;95047.84;;;26.12;64.00
6435;BME280;3250;42.694;23.278;2022-07-29T05:53:30;95046.31;;;26.55;61.24
6435;BME280;3250;42.694;23.278;2022-07-29T05:55:55;95049.19;;;26.81;61.88
6435;BME280;3250;42.694;23.278;2022-07-29T05:58:21;95036.38;;;27.09;61.51
6435;BME280;3250;42.694;23.278;2022-07-29T06:00:46;95047.59;;;27.33;60.65
6435;BME280;3250;42.694;23.278;2022-07-29T06:03:11;95046.19;;;27.67;59.40
6435;BME280;3250;42.694;23.278;2022-07-29T06:05:37;95033.63;;;27.79;58.95
6435;BME280;3250;42.694;23.278;2022-07-29T06:08:03;95025.72;;;28.00;58.93
6435;BME280;3250;42.694;23.278;2022-07-29T06:10:30;95043.28;;;28.46;55.84
6435;BME280;3250;42.694;23.278;2022-07-29T06:12:56;95028.00;;;28.59;55.94
6435;BME280;3250;42.694;23.278;2022-07-29T06:15:21;95034.41;;;28.80;55.69
6435;BME280;3250;42.694;23.278;2022-07-29T06:17:46;95043.28;;;28.89;55.54
6435;BME280;3250;42.694;23.278;2022-07-29T06:20:13;95037.09;;;28.88;54.39
6435;BME280;3250;42.694;23.278;2022-07-29T06:22:38;95041.34;;;29.07;52.11
6435;BME280;3250;42.694;23.278;2022-07-29T06:25:04;95031.59;;;29.14;51.66
6435;BME280;3250;42.694;23.278;2022-07-29T06:27:29;95004.91;;;29.25;50.77
6435;BME280;3250;42.694;23.278;2022-07-29T06:29:56;95036.38;;;29.09;50.24
6435;BME280;3250;42.694;23.278;2022-07-29T06:32:22;95030.97;;;29.09;50.38
6435;BME280;3250;42.694;23.278;2022-07-29T06:34:47;95042.78;;;29.13;49.73
6435;BME280;3250;42.694;23.278;2022-07-29T06:37:13;95040.47;;;29.32;50.89
6435;BME280;3250;42.694;23.278;2022-07-29T06:39:39;95032.56;;;29.10;50.07
6435;BME280;3250;42.694;23.278;2022-07-29T06:42:05;95018.06;;;29.06;50.30
6435;BME280;3250;42.694;23.278;2022-07-29T06:44:31;95025.69;;;29.12;49.54
6435;BME280;3250;42.694;23.278;2022-07-29T06:46:56;95032.44;;;28.72;51.00
6435;BME280;3250;42.694;23.278;2022-07-29T06:49:22;95025.44;;;28.71;50.02
6435;BME280;3250;42.694;23.278;2022-07-29T06:51:48;95032.59;;;28.93;50.80
6435;BME280;3250;42.694;23.278;2022-07-29T06:54:14;95031.94;;;29.13;49.83
6435;BME280;3250;42.694;23.278;2022-07-29T06:56:39;95029.72;;;28.98;49.14
6435;BME280;3250;42.694;23.278;2022-07-29T06:59:07;95026.53;;;29.04;49.41
6435;BME280;3250;42.694;23.278;2022-07-29T07:01:35;95026.84;;;29.03;48.90
6435;BME280;3250;42.694;23.278;2022-07-29T07:04:01;95016.06;;;28.77;49.81
6435;BME280;3250;42.694;23.278;2022-07-29T07:06:26;95026.94;;;29.15;49.30
6435;BME280;3250;42.694;23.278;2022-07-29T07:08:52;95018.69;;;29.11;50.04
6435;BME280;3250;42.694;23.278;2022-07-29T07:11:17;95001.69;;;28.68;48.90
6435;BME280;3250;42.694;23.278;2022-07-29T07:13:42;95023.69;;;28.49;49.94
6435;BME280;3250;42.694;23.278;2022-07-29T07:16:08;95025.31;;;28.41;51.57
6435;BME280;3250;42.694;23.278;2022-07-29T07:18:33;95016.53;;;28.62;50.79
6435;BME280;3250;42.694;23.278;2022-07-29T07:20:59;95007.59;;;28.87;50.76
6435;BME280;3250;42.694;23.278;2022-07-29T07:23:24;95025.28;;;28.67;50.30
6435;BME280;3250;42.694;23.278;2022-07-29T07:25:50;94980.81;;;27.91;51.81
6435;BME280;3250;42.694;23.278;2022-07-29T07:28:15;95016.88;;;28.43;51.10
6435;BME280;3250;42.694;23.278;2022-07-29T07:30:41;95012.50;;;28.94;50.09
6435;BME280;3250;42.694;23.278;2022-07-29T07:33:06;95012.31;;;29.07;50.43
6435;BME280;3250;42.694;23.278;2022-07-29T07:35:32;95020.31;;;29.50;49.18
6435;BME280;3250;42.694;23.278;2022-07-29T07:37:57;95013.03;;;29.72;48.44
6435;BME280;3250;42.694;23.278;2022-07-29T07:40:23;95011.34;;;30.17;49.69
6435;BME280;3250;42.694;23.278;2022-07-29T07:42:48;95020.47;;;30.33;46.47
6435;BME280;3250;42.694;23.278;2022-07-29T07:45:14;95020.16;;;30.56;45.55
6435;BME280;3250;42.694;23.278;2022-07-29T07:47:39;95020.66;;;30.49;45.53
6435;BME280;3250;42.694;23.278;2022-07-29T07:50:06;95009.34;;;30.68;45.86
6435;BME280;3250;42.694;23.278;2022-07-29T07:52:32;95020.94;;;30.35;47.01
6435;BME280;3250;42.694;23.278;2022-07-29T07:54:58;95016.28;;;29.86;46.79
6435;BME280;3250;42.694;23.278;2022-07-29T07:57:23;95011.72;;;29.48;48.47
6435;BME280;3250;42.694;23.278;2022-07-29T07:59:49;95015.97;;;29.58;47.77
6435;BME280;3250;42.694;23.278;2022-07-29T08:02:14;95008.06;;;30.03;47.30
6435;BME280;3250;42.694;23.278;2022-07-29T08:04:40;94994.63;;;29.48;46.84
6435;BME280;3250;42.694;23.278;2022-07-29T08:07:06;94998.22;;;29.60;48.33
6435;BME280;3250;42.694;23.278;2022-07-29T08:09:33;94979.41;;;29.85;46.25
6435;BME280;3250;42.694;23.278;2022-07-29T08:11:59;95007.16;;;30.41;46.23
6435;BME280;3250;42.694;23.278;2022-07-29T08:14:29;94993.31;;;30.33;45.67
6435;BME280;3250;42.694;23.278;2022-07-29T08:16:55;95002.44;;;30.50;45.41
6435;BME280;3250;42.694;23.278;2022-07-29T08:19:20;94984.81;;;30.35;45.01
6435;BME280;3250;42.694;23.278;2022-07-29T08:21:46;95010.28;;;30.10;45.38
6435;BME280;3250;42.694;23.278;2022-07-29T08:24:11;95010.50;;;29.96;45.82
6435;BME280;3250;42.694;23.278;2022-07-29T08:27:13;95014.75;;;29.76;46.12
6435;BME280;3250;42.694;23.278;2022-07-29T08:29:39;95006.03;;;30.00;46.67
6435;BME280;3250;42.694;23.278;2022-07-29T08:32:05;95003.41;;;29.83;46.17
6435;BME280;3250;42.694;23.278;2022-07-29T08:34:31;95009.59;;;30.33;45.63
6435;BME280;3250;42.694;23.278;2022-07-29T08:36:57;95004.13;;;29.92;45.28
6435;BME280;3250;42.694;23.278;2022-07-29T08:39:23;94992.19;;;30.14;46.95
6435;BME280;3250;42.694;23.278;2022-07-29T08:41:49;95001.75;;;30.73;45.18
6435;BME280;3250;42.694;23.278;2022-07-29T08:44:16;95001.81;;;31.31;43.48
6435;BME280;3250;42.694;23.278;2022-07-29T08:46:44;95001.81;;;31.31;44.65
6435;BME280;3250;42.694;23.278;2022-07-29T08:49:10;94999.50;;;31.08;43.54
6435;BME280;3250;42.694;23.278;2022-07-29T08:51:36;95003.03;;;30.88;43.61
6435;BME280;3250;42.694;23.278;2022-07-29T08:54:04;94997.59;;;30.76;43.04
6435;BME280;3250;42.694;23.278;2022-07-29T08:56:30;94975.38;;;30.74;42.16
6435;BME280;3250;42.694;23.278;2022-07-29T08:58:58;94987.28;;;31.27;42.89
6435;BME280;3250;42.694;23.278;2022-07-29T09:01:25;95000.34;;;31.58;42.32
6435;BME280;3250;42.694;23.278;2022-07-29T09:03:55;94994.38;;;31.64;41.48
6435;BME280;3250;42.694;23.278;2022-07-29T09:06:21;94995.38;;;31.02;41.79
6435;BME280;3250;42.694;23.278;2022-07-29T09:08:47;94991.34;;;30.75;42.40
6435;BME280;3250;42.694;23.278;2022-07-29T09:11:14;94988.81;;;30.70;42.27
6435;BME280;3250;42.694;23.278;2022-07-29T09:13:39;94972.28;;;30.63;42.48
6435;BME280;3250;42.694;23.278;2022-07-29T09:16:05;94977.19;;;30.82;42.85
6435;BME280;3250;42.694;23.278;2022-07-29T09:18:42;94967.06;;;30.70;42.44
6435;BME280;3250;42.694;23.278;2022-07-29T09:21:14;94979.19;;;30.61;42.23
6435;BME280;3250;42.694;23.278;2022-07-29T09:24:18;94980.34;;;30.72;42.59
6435;BME280;3250;42.694;23.278;2022-07-29T09:26:46;94962.59;;;30.54;41.60
6435;BME280;3250;42.694;23.278;2022-07-29T09:29:20;94971.75;;;30.49;42.58
6435;BME280;3250;42.694;23.278;2022-07-29T09:31:49;94971.03;;;30.61;43.91
6435;BME280;3250;42.694;23.278;2022-07-29T09:34:16;94973.72;;;30.94;41.99
6435;BME280;3250;42.694;23.278;2022-07-29T09:36:45;94955.44;;;30.82;41.07
6435;BME280;3250;42.694;23.278;2022-07-29T09:39:12;94970.53;;;30.92;40.82
6435;BME280;3250;42.694;23.278;2022-07-29T09:41:51;94966.31;;;30.82;41.50
6435;BME280;3250;42.694;23.278;2022-07-29T09:44:18;94971.28;;;30.68;40.75
6435;BME280;3250;42.694;23.278;2022-07-29T09:49:31;94953.56;;;30.62;41.36
6435;BME280;3250;42.694;23.278;2022-07-29T09:52:15;94969.38;;;30.81;41.15
6435;BME280;3250;42.694;23.278;2022-07-29T09:54:40;94963.91;;;30.68;41.01
6435;BME280;3250;42.694;23.278;2022-07-29T09:57:08;94959.28;;;30.69;41.57
6435;BME280;3250;42.694;23.278;2022-07-29T09:59:38;94963.44;;;30.66;41.50
6435;BME280;3250;42.694;23.278;2022-07-29T10:02:11;94959.00;;;30.62;42.07
6435;BME280;3250;42.694;23.278;2022-07-29T10:04:41;94934.50;;;30.50;41.62
6435;BME280;3250;42.694;23.278;2022-07-29T10:07:08;94954.63;;;30.69;42.46
6435;BME280;3250;42.694;23.278;2022-07-29T10:09:34;94940.59;;;30.80;41.77
6435;BME280;3250;42.694;23.278;2022-07-29T10:12:11;94936.88;;;30.84;42.59
6435;BME280;3250;42.694;23.278;2022-07-29T10:14:39;94931.53;;;30.75;43.12
6435;BME280;3250;42.694;23.278;2022-07-29T10:17:06;94941.28;;;30.89;41.04
6435;BME280;3250;42.694;23.278;2022-07-29T10:19:32;94930.69;;;30.63;41.32
6435;BME280;3250;42.694;23.278;2022-07-29T10:21:59;94933.84;;;30.53;41.50
6435;BME280;3250;42.694;23.278;2022-07-29T10:24:29;94931.50;;;30.63;43.13
6435;BME280;3250;42.694;23.278;2022-07-29T10:26:57;94930.44;;;30.56;43.34
6435;BME280;3250;42.694;23.278;2022-07-29T10:29:24;94919.97;;;30.46;43.08
6435;BME280;3250;42.694;23.278;2022-07-29T10:32:15;94887.09;;;30.26;43.03
6435;BME280;3250;42.694;23.278;2022-07-29T10:35:22;94915.50;;;30.62;43.97
6435;BME280;3250;42.694;23.278;2022-07-29T10:40:49;94919.84;;;30.42;42.91
6435;BME280;3250;42.694;23.278;2022-07-29T10:43:37;94913.88;;;30.49;43.28
6435;BME280;3250;42.694;23.278;2022-07-29T10:46:06;94906.28;;;30.42;42.87
6435;BME280;3250;42.694;23.278;2022-07-29T10:48:32;94897.16;;;30.59;44.44
6435;BME280;3250;42.694;23.278;2022-07-29T10:51:00;94885.38;;;30.55;42.24
6435;BME280;3250;42.694;23.278;2022-07-29T10:56:31;94893.38;;;30.84;42.72
6435;BME280;3250;42.694;23.278;2022-07-29T11:01:47;94883.16;;;31.05;40.16
6435;BME280;3250;42.694;23.278;2022-07-29T11:04:13;94880.25;;;31.23;40.47
6435;BME280;3250;42.694;23.278;2022-07-29T11:09:27;94876.50;;;31.27;39.95
6435;BME280;3250;42.694;23.278;2022-07-29T11:11:56;94880.59;;;31.09;40.32
6435;BME280;3250;42.694;23.278;2022-07-29T11:14:56;94880.13;;;31.07;40.74
6435;BME280;3250;42.694;23.278;2022-07-29T11:17:24;94846.91;;;30.77;39.38
6435;BME280;3250;42.694;23.278;2022-07-29T11:19:49;94868.22;;;30.99;39.82
6435;BME280;3250;42.694;23.278;2022-07-29T11:22:35;94867.34;;;31.07;39.94
6435;BME280;3250;42.694;23.278;2022-07-29T11:25:17;94859.25;;;30.99;40.17
6435;BME280;3250;42.694;23.278;2022-07-29T11:27:46;94865.41;;;31.08;40.25
6435;BME280;3250;42.694;23.278;2022-07-29T11:30:12;94868.00;;;30.92;39.90
6435;BME280;3250;42.694;23.278;2022-07-29T11:32:40;94866.03;;;30.68;40.26
6435;BME280;3250;42.694;23.278;2022-07-29T11:35:18;94855.63;;;30.83;39.80
6435;BME280;3250;42.694;23.278;2022-07-29T11:38:22;94852.13;;;30.94;40.25
6435;BME280;3250;42.694;23.278;2022-07-29T11:40:33;94867.91;;;31.13;39.97
6435;BME280;3250;42.694;23.278;2022-07-29T11:42:59;94867.13;;;31.13;39.62
6435;BME280;3250;42.694;23.278;2022-07-29T11:45:26;94853.03;;;30.98;40.18
6435;BME280;3250;42.694;23.278;2022-07-29T11:47:58;94856.44;;;31.07;40.65
6435;BME280;3250;42.694;23.278;2022-07-29T11:50:29;94844.66;;;31.28;39.33
6435;BME280;3250;42.694;23.278;2022-07-29T11:52:56;94849.31;;;31.39;39.70
6435;BME280;3250;42.694;23.278;2022-07-29T11:55:23;94840.56;;;31.46;38.62
6435;BME280;3250;42.694;23.278;2022-07-29T11:57:57;94851.66;;;31.53;39.30
6435;BME280;3250;42.694;23.278;2022-07-29T12:00:35;94836.00;;;31.50;39.58
6435;BME280;3250;42.694;23.278;2022-07-29T12:03:04;94851.53;;;31.74;39.66
6435;BME280;3250;42.694;23.278;2022-07-29T12:08:05;94854.00;;;31.67;39.04
6435;BME280;3250;42.694;23.278;2022-07-29T12:10:31;94840.97;;;31.72;38.99
6435;BME280;3250;42.694;23.278;2022-07-29T12:12:57;94828.03;;;31.69;39.09
6435;BME280;3250;42.694;23.278;2022-07-29T12:15:22;94850.78;;;31.89;38.63
6435;BME280;3250;42.694;23.278;2022-07-29T12:17:49;94845.22;;;31.85;39.46
6435;BME280;3250;42.694;23.278;2022-07-29T12:20:23;94847.50;;;31.83;39.42
6435;BME280;3250;42.694;23.278;2022-07-29T12:22:48;94837.13;;;31.73;38.17
6435;BME280;3250;42.694;23.278;2022-07-29T12:25:14;94843.13;;;31.67;38.55
6435;BME280;3250;42.694;23.278;2022-07-29T12:27:42;94824.44;;;31.65;38.18
6435;BME280;3250;42.694;23.278;2022-07-29T12:30:12;94839.78;;;31.85;36.89
6435;BME280;3250;42.694;23.278;2022-07-29T12:32:43;94839.84;;;31.73;37.21
6435;BME280;3250;42.694;23.278;2022-07-29T12:35:14;94831.59;;;31.85;37.40
6435;BME280;3250;42.694;23.278;2022-07-29T12:37:41;94819.56;;;31.86;39.11
6435;BME280;3250;42.694;23.278;2022-07-29T12:40:09;94824.13;;;32.10;39.19
6435;BME280;3250;42.694;23.278;2022-07-29T12:42:36;94828.31;;;32.20;38.27
6435;BME280;3250;42.694;23.278;2022-07-29T12:45:03;94826.03;;;32.22;38.22
6435;BME280;3250;42.694;23.278;2022-07-29T12:47:29;94832.91;;;32.04;37.39
6435;BME280;3250;42.694;23.278;2022-07-29T12:50:11;94822.75;;;31.89;38.36
6435;BME280;3250;42.694;23.278;2022-07-29T12:52:39;94818.41;;;32.00;38.28
6435;BME280;3250;42.694;23.278;2022-07-29T12:55:05;94816.69;;;31.95;38.06
6435;BME280;3250;42.694;23.278;2022-07-29T12:57:31;94815.38;;;31.89;37.48
6435;BME280;3250;42.694;23.278;2022-07-29T13:00:08;94811.09;;;31.76;37.95
6435;BME280;3250;42.694;23.278;2022-07-29T13:02:36;94809.28;;;31.80;38.40
6435;BME280;3250;42.694;23.278;2022-07-29T13:05:02;94806.28;;;31.85;37.65
6435;BME280;3250;42.694;23.278;2022-07-29T13:07:31;94807.66;;;31.91;37.18
6435;BME280;3250;42.694;23.278;2022-07-29T13:10:29;94779.94;;;31.73;37.38
6435;BME280;3250;42.694;23.278;2022-07-29T13:13:05;94807.25;;;31.77;37.69
6435;BME280;3250;42.694;23.278;2022-07-29T13:15:32;94802.44;;;31.86;37.91
6435;BME280;3250;42.694;23.278;2022-07-29T13:17:58;94776.34;;;31.85;37.23
6435;BME280;3250;42.694;23.278;2022-07-29T13:20:26;94797.09;;;31.90;37.33
6435;BME280;3250;42.694;23.278;2022-07-29T13:22:54;94749.06;;;31.57;37.69
6435;BME280;3250;42.694;23.278;2022-07-29T13:25:27;94793.66;;;31.93;38.07
6435;BME280;3250;42.694;23.278;2022-07-29T13:27:53;94752.53;;;31.82;37.08
6435;BME280;3250;42.694;23.278;2022-07-29T13:30:20;94784.38;;;32.09;37.12
6435;BME280;3250;42.694;23.278;2022-07-29T13:32:47;94779.50;;;32.15;38.33
6435;BME280;3250;42.694;23.278;2022-07-29T13:35:13;94779.84;;;32.13;37.15
6435;BME280;3250;42.694;23.278;2022-07-29T13:37:38;94781.75;;;31.97;36.98
6435;BME280;3250;42.694;23.278;2022-07-29T13:40:08;94744.38;;;31.82;37.68
6435;BME280;3250;42.694;23.278;2022-07-29T13:42:34;94750.53;;;31.95;38.11
6435;BME280;3250;42.694;23.278;2022-07-29T13:45:00;94772.63;;;32.05;38.32
6435;BME280;3250;42.694;23.278;2022-07-29T13:47:26;94780.25;;;32.00;37.58